sensor_id;sensor_type;location;lat;lon;timestamp;pressure;altitude;pressure_sealevel;temperature
16956;BMP180;8594;52.052;8.354;2023-06-26T06:26:42;100351.00;;;30.70
16956;BMP180;8594;52.052;8.354;2023-06-26T06:29:09;100357.00;;;30.70
16956;BMP180;8594;52.052;8.354;2023-06-26T06:31:36;100359.00;;;30.50
16956;BMP180;8594;52.052;8.354;2023-06-26T06:34:03;100366.00;;;30.10
16956;BMP180;8594;52.052;8.354;2023-06-26T06:36:29;100386.00;;;30.80
16956;BMP180;8594;52.052;8.354;2023-06-26T06:38:56;100381.00;;;30.10
16956;BMP180;8594;52.052;8.354;2023-06-26T06:41:23;100393.00;;;30.90
16956;BMP180;8594;52.052;8.354;2023-06-26T06:43:51;100395.00;;;31.30
16956;BMP180;8594;52.052;8.354;2023-06-26T06:46:18;100398.00;;;31.60
16956;BMP180;8594;52.052;8.354;2023-06-26T06:48:45;100406.00;;;31.70
16956;BMP180;8594;52.052;8.354;2023-06-26T06:51:12;100410.00;;;31.40
16956;BMP180;8594;52.052;8.354;2023-06-26T06:53:39;100400.00;;;30.60
16956;BMP180;8594;52.052;8.354;2023-06-26T06:56:06;100401.00;;;31.00
16956;BMP180;8594;52.052;8.354;2023-06-26T06:58:33;100390.00;;;30.80
16956;BMP180;8594;52.052;8.354;2023-06-26T07:01:04;100394.00;;;31.10
16956;BMP180;8594;52.052;8.354;2023-06-26T07:03:30;100398.00;;;30.70
16956;BMP180;8594;52.052;8.354;2023-06-26T07:05:57;100394.00;;;30.70
16956;BMP180;8594;52.052;8.354;2023-06-26T07:08:24;100397.00;;;30.80
16956;BMP180;8594;52.052;8.354;2023-06-26T07:10:51;100403.00;;;31.00
16956;BMP180;8594;52.052;8.354;2023-06-26T07:13:17;100397.00;;;31.50
16956;BMP180;8594;52.052;8.354;2023-06-26T07:15:45;100406.00;;;30.80
16956;BMP180;8594;52.052;8.354;2023-06-26T07:18:14;100411.00;;;31.30
16956;BMP180;8594;52.052;8.354;2023-06-26T07:20:41;100414.00;;;31.10
16956;BMP180;8594;52.052;8.354;2023-06-26T07:23:08;100410.00;;;30.80
16956;BMP180;8594;52.052;8.354;2023-06-26T07:25:35;100415.00;;;30.90
16956;BMP180;8594;52.052;8.354;2023-06-26T07:28:02;100408.00;;;30.10
16956;BMP180;8594;52.052;8.354;2023-06-26T07:30:29;100412.00;;;30.60
16956;BMP180;8594;52.052;8.354;2023-06-26T07:32:56;100404.00;;;30.90
16956;BMP180;8594;52.052;8.354;2023-06-26T07:35:24;100411.00;;;30.60
16956;BMP180;8594;52.052;8.354;2023-06-26T07:37:53;100418.00;;;30.10
16956;BMP180;8594;52.052;8.354;2023-06-26T07:40:20;100425.00;;;31.10
16956;BMP180;8594;52.052;8.354;2023-06-26T07:42:46;100430.00;;;30.80
16956;BMP180;8594;52.052;8.354;2023-06-26T07:45:13;100451.00;;;30.60
16956;BMP180;8594;52.052;8.354;2023-06-26T07:47:40;100462.00;;;30.50
16956;BMP180;8594;52.052;8.354;2023-06-26T07:50:08;100454.00;;;29.50
16956;BMP180;8594;52.052;8.354;2023-06-26T07:52:36;100464.00;;;29.90
16956;BMP180;8594;52.052;8.354;2023-06-26T07:55:04;100475.00;;;29.00
16956;BMP180;8594;52.052;8.354;2023-06-26T07:57:31;100476.00;;;28.90
16956;BMP180;8594;52.052;8.354;2023-06-26T07:59:58;100476.00;;;29.50
16956;BMP180;8594;52.052;8.354;2023-06-26T08:02:25;100476.00;;;29.00
16956;BMP180;8594;52.052;8.354;2023-06-26T08:04:52;100484.00;;;29.20
16956;BMP180;8594;52.052;8.354;2023-06-26T08:07:18;100497.00;;;28.90
16956;BMP180;8594;52.052;8.354;2023-06-26T08:09:47;100495.00;;;28.90
16956;BMP180;8594;52.052;8.354;2023-06-26T08:12:14;100493.00;;;28.70
16956;BMP180;8594;52.052;8.354;2023-06-26T08:14:40;100501.00;;;28.60
16956;BMP180;8594;52.052;8.354;2023-06-26T08:17:07;100496.00;;;28.10
16956;BMP180;8594;52.052;8.354;2023-06-26T08:19:34;100495.00;;;28.20
16956;BMP180;8594;52.052;8.354;2023-06-26T08:22:00;100501.00;;;28.00
16956;BMP180;8594;52.052;8.354;2023-06-26T08:24:28;100483.00;;;28.80
16956;BMP180;8594;52.052;8.354;2023-06-26T08:26:56;100485.00;;;28.90
16956;BMP180;8594;52.052;8.354;2023-06-26T08:29:23;100468.00;;;28.90
16956;BMP180;8594;52.052;8.354;2023-06-26T08:31:50;100471.00;;;28.90
16956;BMP180;8594;52.052;8.354;2023-06-26T08:34:17;100465.00;;;29.60
16956;BMP180;8594;52.052;8.354;2023-06-26T08:36:43;100479.00;;;30.20
16956;BMP180;8594;52.052;8.354;2023-06-26T08:39:10;100476.00;;;29.80
16956;BMP180;8594;52.052;8.354;2023-06-26T08:41:37;100485.00;;;30.10
16956;BMP180;8594;52.052;8.354;2023-06-26T08:44:05;100498.00;;;30.20
16956;BMP180;8594;52.052;8.354;2023-06-26T08:46:34;100493.00;;;30.50
16956;BMP180;8594;52.052;8.354;2023-06-26T08:49:08;100500.00;;;30.80
16956;BMP180;8594;52.052;8.354;2023-06-26T08:51:45;100508.00;;;30.00
16956;BMP180;8594;52.052;8.354;2023-06-26T08:54:17;100516.00;;;29.90
16956;BMP180;8594;52.052;8.354;2023-06-26T08:56:49;100526.00;;;30.10
16956;BMP180;8594;52.052;8.354;2023-06-26T08:59:18;100531.00;;;29.70
16956;BMP180;8594;52.052;8.354;2023-06-26T09:01:45;100528.00;;;30.10
16956;BMP180;8594;52.052;8.354;2023-06-26T09:04:12;100529.00;;;29.40
16956;BMP180;8594;52.052;8.354;2023-06-26T09:06:39;100531.00;;;29.80
16956;BMP180;8594;52.052;8.354;2023-06-26T09:09:06;100535.00;;;29.20
16956;BMP180;8594;52.052;8.354;2023-06-26T09:11:34;100523.00;;;29.80
16956;BMP180;8594;52.052;8.354;2023-06-26T09:14:01;100546.00;;;29.70
16956;BMP180;8594;52.052;8.354;2023-06-26T09:16:31;100533.00;;;29.90
16956;BMP180;8594;52.052;8.354;2023-06-26T09:18:58;100538.00;;;29.20
16956;BMP180;8594;52.052;8.354;2023-06-26T09:21:25;100538.00;;;29.10
16956;BMP180;8594;52.052;8.354;2023-06-26T09:23:53;100545.00;;;29.30
16956;BMP180;8594;52.052;8.354;2023-06-26T09:26:21;100544.00;;;28.50
16956;BMP180;8594;52.052;8.354;2023-06-26T09:28:51;100534.00;;;29.10
16956;BMP180;8594;52.052;8.354;2023-06-26T09:31:18;100537.00;;;29.30
16956;BMP180;8594;52.052;8.354;2023-06-26T09:33:47;100535.00;;;29.70
16956;BMP180;8594;52.052;8.354;2023-06-26T09:36:20;100530.00;;;29.70
16956;BMP180;8594;52.052;8.354;2023-06-26T09:38:47;100529.00;;;29.00
16956;BMP180;8594;52.052;8.354;2023-06-26T09:41:16;100527.00;;;29.90
16956;BMP180;8594;52.052;8.354;2023-06-26T09:43:47;100535.00;;;29.30
16956;BMP180;8594;52.052;8.354;2023-06-26T09:46:16;100539.00;;;29.10
16956;BMP180;8594;52.052;8.354;2023-06-26T09:48:43;100541.00;;;29.20
16956;BMP180;8594;52.052;8.354;2023-06-26T09:51:11;100543.00;;;28.80
16956;BMP180;8594;52.052;8.354;2023-06-26T09:53:38;100552.00;;;28.80
16956;BMP180;8594;52.052;8.354;2023-06-26T09:56:15;100539.00;;;29.20
16956;BMP180;8594;52.052;8.354;2023-06-26T09:58:43;100538.00;;;29.40
16956;BMP180;8594;52.052;8.354;2023-06-26T10:01:10;100546.00;;;29.80
16956;BMP180;8594;52.052;8.354;2023-06-26T10:03:37;100548.00;;;29.20
16956;BMP180;8594;52.052;8.354;2023-06-26T10:06:05;100554.00;;;29.70
16956;BMP180;8594;52.052;8.354;2023-06-26T10:08:37;100547.00;;;29.30
16956;BMP180;8594;52.052;8.354;2023-06-26T10:11:04;100550.00;;;29.10
16956;BMP180;8594;52.052;8.354;2023-06-26T10:13:38;100545.00;;;28.10
16956;BMP180;8594;52.052;8.354;2023-06-26T10:16:08;100547.00;;;28.50
16956;BMP180;8594;52.052;8.354;2023-06-26T10:18:39;100545.00;;;28.60
16956;BMP180;8594;52.052;8.354;2023-06-26T10:21:08;100558.00;;;28.70
16956;BMP180;8594;52.052;8.354;2023-06-26T10:23:40;100559.00;;;28.80
16956;BMP180;8594;52.052;8.354;2023-06-26T10:26:13;100548.00;;;28.40
16956;BMP180;8594;52.052;8.354;2023-06-26T10:28:42;100547.00;;;29.10
16956;BMP180;8594;52.052;8.354;2023-06-26T10:31:12;100556.00;;;29.20
16956;BMP180;8594;52.052;8.354;2023-06-26T10:33:39;100555.00;;;29.20
16956;BMP180;8594;52.052;8.354;2023-06-26T10:36:14;100544.00;;;29.80
16956;BMP180;8594;52.052;8.354;2023-06-26T10:38:55;100556.00;;;29.80
16956;BMP180;8594;52.052;8.354;2023-06-26T10:41:24;100563.00;;;29.20
16956;BMP180;8594;52.052;8.354;2023-06-26T10:44:06;100578.00;;;28.80
16956;BMP180;8594;52.052;8.354;2023-06-26T10:46:33;100581.00;;;28.90
16956;BMP180;8594;52.052;8.354;2023-06-26T10:49:14;100589.00;;;28.70
16956;BMP180;8594;52.052;8.354;2023-06-26T10:51:46;100587.00;;;28.20
16956;BMP180;8594;52.052;8.354;2023-06-26T10:54:18;100590.00;;;28.90
16956;BMP180;8594;52.052;8.354;2023-06-26T10:56:47;100596.00;;;28.70
16956;BMP180;8594;52.052;8.354;2023-06-26T10:59:17;100591.00;;;28.70
16956;BMP180;8594;52.052;8.354;2023-06-26T11:01:45;100578.00;;;29.40
16956;BMP180;8594;52.052;8.354;2023-06-26T11:04:14;100590.00;;;29.70
16956;BMP180;8594;52.052;8.354;2023-06-26T11:06:45;100587.00;;;29.20
16956;BMP180;8594;52.052;8.354;2023-06-26T11:09:18;100581.00;;;29.70
16956;BMP180;8594;52.052;8.354;2023-06-26T11:11:58;100592.00;;;29.80
16956;BMP180;8594;52.052;8.354;2023-06-26T11:14:27;100595.00;;;30.00
16956;BMP180;8594;52.052;8.354;2023-06-26T11:16:56;100588.00;;;30.00
16956;BMP180;8594;52.052;8.354;2023-06-26T11:19:26;100587.00;;;29.70
16956;BMP180;8594;52.052;8.354;2023-06-26T11:21:59;100581.00;;;30.20
16956;BMP180;8594;52.052;8.354;2023-06-26T11:24:30;100589.00;;;30.20
16956;BMP180;8594;52.052;8.354;2023-06-26T11:27:01;100591.00;;;30.20
16956;BMP180;8594;52.052;8.354;2023-06-26T11:29:30;100586.00;;;30.20
16956;BMP180;8594;52.052;8.354;2023-06-26T11:32:05;100573.00;;;29.90
16956;BMP180;8594;52.052;8.354;2023-06-26T11:34:33;100576.00;;;30.20
16956;BMP180;8594;52.052;8.354;2023-06-26T11:37:01;100583.00;;;30.10
16956;BMP180;8594;52.052;8.354;2023-06-26T11:39:30;100586.00;;;30.40
16956;BMP180;8594;52.052;8.354;2023-06-26T11:41:59;100598.00;;;30.40
16956;BMP180;8594;52.052;8.354;2023-06-26T11:44:29;100599.00;;;30.50
16956;BMP180;8594;52.052;8.354;2023-06-26T11:46:57;100600.00;;;31.10
16956;BMP180;8594;52.052;8.354;2023-06-26T11:49:24;100606.00;;;30.30
16956;BMP180;8594;52.052;8.354;2023-06-26T11:51:53;100593.00;;;29.50
16956;BMP180;8594;52.052;8.354;2023-06-26T11:54:25;100604.00;;;30.20
16956;BMP180;8594;52.052;8.354;2023-06-26T11:56:55;100609.00;;;30.80
16956;BMP180;8594;52.052;8.354;2023-06-26T11:59:37;100608.00;;;30.70
16956;BMP180;8594;52.052;8.354;2023-06-26T12:02:06;100613.00;;;30.80
16956;BMP180;8594;52.052;8.354;2023-06-26T12:04:35;100624.00;;;30.30
16956;BMP180;8594;52.052;8.354;2023-06-26T12:07:03;100619.00;;;30.30
16956;BMP180;8594;52.052;8.354;2023-06-26T12:09:31;100618.00;;;30.00
16956;BMP180;8594;52.052;8.354;2023-06-26T12:12:02;100620.00;;;31.10
16956;BMP180;8594;52.052;8.354;2023-06-26T12:14:30;100623.00;;;31.10
16956;BMP180;8594;52.052;8.354;2023-06-26T12:17:05;100623.00;;;31.40
16956;BMP180;8594;52.052;8.354;2023-06-26T12:19:37;100630.00;;;30.70
16956;BMP180;8594;52.052;8.354;2023-06-26T12:22:07;100636.00;;;30.10
16956;BMP180;8594;52.052;8.354;2023-06-26T12:24:37;100626.00;;;30.20
16956;BMP180;8594;52.052;8.354;2023-06-26T12:27:09;100627.00;;;30.80
16956;BMP180;8594;52.052;8.354;2023-06-26T12:29:39;100626.00;;;30.50
16956;BMP180;8594;52.052;8.354;2023-06-26T12:32:10;100629.00;;;30.30
16956;BMP180;8594;52.052;8.354;2023-06-26T12:34:38;100637.00;;;30.60
16956;BMP180;8594;52.052;8.354;2023-06-26T12:37:07;100636.00;;;30.30
16956;BMP180;8594;52.052;8.354;2023-06-26T12:39:49;100639.00;;;30.20
16956;BMP180;8594;52.052;8.354;2023-06-26T12:42:19;100641.00;;;29.70
16956;BMP180;8594;52.052;8.354;2023-06-26T12:44:47;100639.00;;;30.30
16956;BMP180;8594;52.052;8.354;2023-06-26T12:47:15;100640.00;;;29.60
16956;BMP180;8594;52.052;8.354;2023-06-26T12:49:44;100648.00;;;29.70
16956;BMP180;8594;52.052;8.354;2023-06-26T12:52:13;100644.00;;;29.80
16956;BMP180;8594;52.052;8.354;2023-06-26T12:54:42;100652.00;;;29.50
16956;BMP180;8594;52.052;8.354;2023-06-26T12:57:09;100639.00;;;29.70
16956;BMP180;8594;52.052;8.354;2023-06-26T12:59:38;100644.00;;;30.00
16956;BMP180;8594;52.052;8.354;2023-06-26T13:02:06;100643.00;;;29.90
16956;BMP180;8594;52.052;8.354;2023-06-26T13:04:34;100647.00;;;30.50
16956;BMP180;8594;52.052;8.354;2023-06-26T13:07:01;100648.00;;;30.20
16956;BMP180;8594;52.052;8.354;2023-06-26T13:09:34;100635.00;;;30.00
16956;BMP180;8594;52.052;8.354;2023-06-26T13:12:03;100651.00;;;29.90
16956;BMP180;8594;52.052;8.354;2023-06-26T13:14:30;100662.00;;;29.50
16956;BMP180;8594;52.052;8.354;2023-06-26T13:17:01;100655.00;;;29.60
16956;BMP180;8594;52.052;8.354;2023-06-26T13:19:28;100655.00;;;29.70
16956;BMP180;8594;52.052;8.354;2023-06-26T13:21:55;100652.00;;;29.60
16956;BMP180;8594;52.052;8.354;2023-06-26T13:24:22;100662.00;;;29.40
16956;BMP180;8594;52.052;8.354;2023-06-26T13:26:49;100661.00;;;29.50
16956;BMP180;8594;52.052;8.354;2023-06-26T13:29:16;100649.00;;;29.40
16956;BMP180;8594;52.052;8.354;2023-06-26T13:31:42;100654.00;;;29.70
16956;BMP180;8594;52.052;8.354;2023-06-26T13:34:20;100656.00;;;29.40
16956;BMP180;8594;52.052;8.354;2023-06-26T13:36:48;100664.00;;;29.50
16956;BMP180;8594;52.052;8.354;2023-06-26T13:39:15;100678.00;;;29.40
16956;BMP180;8594;52.052;8.354;2023-06-26T13:41:42;100680.00;;;29.20
16956;BMP180;8594;52.052;8.354;2023-06-26T13:44:08;100682.00;;;29.00
16956;BMP180;8594;52.052;8.354;2023-06-26T13:46:35;100674.00;;;28.20
16956;BMP180;8594;52.052;8.354;2023-06-26T13:49:02;100667.00;;;29.10
16956;BMP180;8594;52.052;8.354;2023-06-26T13:51:30;100676.00;;;29.10
16956;BMP180;8594;52.052;8.354;2023-06-26T13:53:57;100681.00;;;29.70
16956;BMP180;8594;52.052;8.354;2023-06-26T13:56:25;100677.00;;;29.80
16956;BMP180;8594;52.052;8.354;2023-06-26T13:58:53;100690.00;;;29.70
16956;BMP180;8594;52.052;8.354;2023-06-26T14:01:20;100687.00;;;29.40
16956;BMP180;8594;52.052;8.354;2023-06-26T14:03:46;100689.00;;;28.70
16956;BMP180;8594;52.052;8.354;2023-06-26T14:06:13;100684.00;;;28.70
16956;BMP180;8594;52.052;8.354;2023-06-26T14:08:41;100688.00;;;28.60
16956;BMP180;8594;52.052;8.354;2023-06-26T14:11:09;100688.00;;;29.20
16956;BMP180;8594;52.052;8.354;2023-06-26T14:13:36;100691.00;;;28.80
16956;BMP180;8594;52.052;8.354;2023-06-26T14:16:04;100684.00;;;29.30
16956;BMP180;8594;52.052;8.354;2023-06-26T14:18:31;100685.00;;;29.20
16956;BMP180;8594;52.052;8.354;2023-06-26T14:20:59;100685.00;;;29.20
16956;BMP180;8594;52.052;8.354;2023-06-26T14:23:26;100684.00;;;29.10
16956;BMP180;8594;52.052;8.354;2023-06-26T14:25:54;100684.00;;;29.40
16956;BMP180;8594;52.052;8.354;2023-06-26T14:28:21;100686.00;;;28.90
16956;BMP180;8594;52.052;8.354;2023-06-26T14:30:48;100687.00;;;29.00
16956;BMP180;8594;52.052;8.354;2023-06-26T14:33:15;100680.00;;;28.90
16956;BMP180;8594;52.052;8.354;2023-06-26T14:35:42;100699.00;;;29.10
16956;BMP180;8594;52.052;8.354;2023-06-26T14:38:08;100711.00;;;28.40
16956;BMP180;8594;52.052;8.354;2023-06-26T14:40:35;100708.00;;;28.00
16956;BMP180;8594;52.052;8.354;2023-06-26T14:43:03;100713.00;;;28.70
16956;BMP180;8594;52.052;8.354;2023-06-26T14:45:32;100709.00;;;28.90
16956;BMP180;8594;52.052;8.354;2023-06-26T14:47:58;100711.00;;;28.10
16956;BMP180;8594;52.052;8.354;2023-06-26T14:50:25;100713.00;;;28.60
16956;BMP180;8594;52.052;8.354;2023-06-26T14:52:52;100714.00;;;28.80
16956;BMP180;8594;52.052;8.354;2023-06-26T14:55:19;100704.00;;;28.90
16956;BMP180;8594;52.052;8.354;2023-06-26T14:57:46;100711.00;;;28.30
16956;BMP180;8594;52.052;8.354;2023-06-26T15:00:16;100715.00;;;28.70
16956;BMP180;8594;52.052;8.354;2023-06-26T15:02:43;100709.00;;;28.50
16956;BMP180;8594;52.052;8.354;2023-06-26T15:05:09;100710.00;;;28.30
16956;BMP180;8594;52.052;8.354;2023-06-26T15:07:36;100710.00;;;28.00
16956;BMP180;8594;52.052;8.354;2023-06-26T15:10:04;100710.00;;;27.80
16956;BMP180;8594;52.052;8.354;2023-06-26T15:12:32;100713.00;;;28.40
16956;BMP180;8594;52.052;8.354;2023-06-26T15:14:58;100719.00;;;28.50
16956;BMP180;8594;52.052;8.354;2023-06-26T15:17:26;100723.00;;;28.50
16956;BMP180;8594;52.052;8.354;2023-06-26T15:19:53;100722.00;;;28.30
16956;BMP180;8594;52.052;8.354;2023-06-26T15:22:22;100719.00;;;28.50
16956;BMP180;8594;52.052;8.354;2023-06-26T15:24:52;100723.00;;;28.40
16956;BMP180;8594;52.052;8.354;2023-06-26T15:27:19;100723.00;;;28.70
16956;BMP180;8594;52.052;8.354;2023-06-26T15:29:46;100714.00;;;27.90
16956;BMP180;8594;52.052;8.354;2023-06-26T15:32:13;100718.00;;;28.70
16956;BMP180;8594;52.052;8.354;2023-06-26T15:34:42;100718.00;;;28.00
16956;BMP180;8594;52.052;8.354;2023-06-26T15:37:09;100727.00;;;28.40
16956;BMP180;8594;52.052;8.354;2023-06-26T15:39:36;100730.00;;;28.30
16956;BMP180;8594;52.052;8.354;2023-06-26T15:42:07;100713.00;;;27.90
16956;BMP180;8594;52.052;8.354;2023-06-26T15:44:34;100727.00;;;28.20
16956;BMP180;8594;52.052;8.354;2023-06-26T15:47:01;100739.00;;;27.80
16956;BMP180;8594;52.052;8.354;2023-06-26T15:49:27;100734.00;;;27.70
16956;BMP180;8594;52.052;8.354;2023-06-26T15:51:56;100733.00;;;27.90
16956;BMP180;8594;52.052;8.354;2023-06-26T15:54:22;100740.00;;;27.70
16956;BMP180;8594;52.052;8.354;2023-06-26T15:56:51;100748.00;;;27.70
16956;BMP180;8594;52.052;8.354;2023-06-26T15:59:18;100749.00;;;27.50
16956;BMP180;8594;52.052;8.354;2023-06-26T16:01:45;100749.00;;;27.50
16956;BMP180;8594;52.052;8.354;2023-06-26T16:04:14;100750.00;;;27.30
16956;BMP180;8594;52.052;8.354;2023-06-26T16:06:40;100751.00;;;27.20
16956;BMP180;8594;52.052;8.354;2023-06-26T16:09:09;100754.00;;;27.20
16956;BMP180;8594;52.052;8.354;2023-06-26T16:11:35;100738.00;;;27.30
16956;BMP180;8594;52.052;8.354;2023-06-26T16:14:02;100751.00;;;27.80
16956;BMP180;8594;52.052;8.354;2023-06-26T16:16:29;100753.00;;;27.40
16956;BMP180;8594;52.052;8.354;2023-06-26T16:18:56;100759.00;;;27.60
16956;BMP180;8594;52.052;8.354;2023-06-26T16:21:23;100751.00;;;28.00
16956;BMP180;8594;52.052;8.354;2023-06-26T16:23:50;100750.00;;;27.50
16956;BMP180;8594;52.052;8.354;2023-06-26T16:26:18;100747.00;;;27.00
16956;BMP180;8594;52.052;8.354;2023-06-26T16:28:45;100749.00;;;27.10
16956;BMP180;8594;52.052;8.354;2023-06-26T16:31:13;100755.00;;;27.10
16956;BMP180;8594;52.052;8.354;2023-06-26T16:33:40;100745.00;;;26.50
16956;BMP180;8594;52.052;8.354;2023-06-26T16:36:07;100746.00;;;27.20
16956;BMP180;8594;52.052;8.354;2023-06-26T16:38:34;100752.00;;;26.70
16956;BMP180;8594;52.052;8.354;2023-06-26T16:41:00;100751.00;;;26.80
16956;BMP180;8594;52.052;8.354;2023-06-26T16:43:28;100751.00;;;27.00
16956;BMP180;8594;52.052;8.354;2023-06-26T16:45:55;100754.00;;;26.10
16956;BMP180;8594;52.052;8.354;2023-06-26T16:48:22;100754.00;;;26.00
16956;BMP180;8594;52.052;8.354;2023-06-26T16:50:50;100756.00;;;25.80
16956;BMP180;8594;52.052;8.354;2023-06-26T16:53:16;100758.00;;;26.00
16956;BMP180;8594;52.052;8.354;2023-06-26T16:55:43;100760.00;;;26.60
16956;BMP180;8594;52.052;8.354;2023-06-26T16:58:11;100767.00;;;26.50
16956;BMP180;8594;52.052;8.354;2023-06-26T17:00:39;100771.00;;;26.80
16956;BMP180;8594;52.052;8.354;2023-06-26T17:03:06;100765.00;;;26.90
16956;BMP180;8594;52.052;8.354;2023-06-26T17:05:33;100761.00;;;26.60
16956;BMP180;8594;52.052;8.354;2023-06-26T17:08:00;100757.00;;;27.00
16956;BMP180;8594;52.052;8.354;2023-06-26T17:10:27;100764.00;;;26.30
16956;BMP180;8594;52.052;8.354;2023-06-26T17:12:54;100758.00;;;26.20
16956;BMP180;8594;52.052;8.354;2023-06-26T17:15:21;100766.00;;;26.40
16956;BMP180;8594;52.052;8.354;2023-06-26T17:17:49;100772.00;;;26.40
16956;BMP180;8594;52.052;8.354;2023-06-26T17:20:17;100767.00;;;26.40
16956;BMP180;8594;52.052;8.354;2023-06-26T17:22:45;100772.00;;;26.50
16956;BMP180;8594;52.052;8.354;2023-06-26T17:25:13;100777.00;;;26.20
16956;BMP180;8594;52.052;8.354;2023-06-26T17:27:40;100780.00;;;26.20
16956;BMP180;8594;52.052;8.354;2023-06-26T17:30:08;100795.00;;;26.30
16956;BMP180;8594;52.052;8.354;2023-06-26T17:32:37;100792.00;;;26.00
16956;BMP180;8594;52.052;8.354;2023-06-26T17:35:06;100793.00;;;26.40
16956;BMP180;8594;52.052;8.354;2023-06-26T17:37:34;100790.00;;;26.60
16956;BMP180;8594;52.052;8.354;2023-06-26T17:40:01;100799.00;;;26.50
16956;BMP180;8594;52.052;8.354;2023-06-26T17:42:29;100804.00;;;26.10
16956;BMP180;8594;52.052;8.354;2023-06-26T17:44:56;100808.00;;;26.00
16956;BMP180;8594;52.052;8.354;2023-06-26T17:47:24;100808.00;;;26.20
16956;BMP180;8594;52.052;8.354;2023-06-26T17:49:53;100807.00;;;26.40
16956;BMP180;8594;52.052;8.354;2023-06-26T17:52:21;100798.00;;;26.20
16956;BMP180;8594;52.052;8.354;2023-06-26T17:54:48;100812.00;;;25.60
16956;BMP180;8594;52.052;8.354;2023-06-26T17:57:15;100811.00;;;25.40
16956;BMP180;8594;52.052;8.354;2023-06-26T17:59:42;100821.00;;;25.70
16956;BMP180;8594;52.052;8.354;2023-06-26T18:02:09;100819.00;;;25.40
16956;BMP180;8594;52.052;8.354;2023-06-26T18:04:38;100821.00;;;24.90
16956;BMP180;8594;52.052;8.354;2023-06-26T18:07:05;100831.00;;;25.50
16956;BMP180;8594;52.052;8.354;2023-06-26T18:09:33;100837.00;;;25.20
16956;BMP180;8594;52.052;8.354;2023-06-26T18:12:00;100829.00;;;25.80
16956;BMP180;8594;52.052;8.354;2023-06-26T18:14:27;100843.00;;;25.50
16956;BMP180;8594;52.052;8.354;2023-06-26T18:16:54;100832.00;;;25.70
16956;BMP180;8594;52.052;8.354;2023-06-26T18:19:21;100844.00;;;25.70
16956;BMP180;8594;52.052;8.354;2023-06-26T18:21:48;100844.00;;;24.60
16956;BMP180;8594;52.052;8.354;2023-06-26T18:24:14;100844.00;;;24.60
16956;BMP180;8594;52.052;8.354;2023-06-26T18:26:43;100848.00;;;24.60
16956;BMP180;8594;52.052;8.354;2023-06-26T18:29:10;100854.00;;;24.90
16956;BMP180;8594;52.052;8.354;2023-06-26T18:31:37;100848.00;;;24.50
16956;BMP180;8594;52.052;8.354;2023-06-26T18:34:03;100849.00;;;24.90
16956;BMP180;8594;52.052;8.354;2023-06-26T18:36:30;100852.00;;;25.20
16956;BMP180;8594;52.052;8.354;2023-06-26T18:38:57;100851.00;;;24.90
16956;BMP180;8594;52.052;8.354;2023-06-26T18:41:24;100856.00;;;25.20
16956;BMP180;8594;52.052;8.354;2023-06-26T18:43:52;100855.00;;;25.30
16956;BMP180;8594;52.052;8.354;2023-06-26T18:46:19;100854.00;;;25.00
16956;BMP180;8594;52.052;8.354;2023-06-26T18:48:46;100865.00;;;24.60
16956;BMP180;8594;52.052;8.354;2023-06-26T18:51:13;100871.00;;;25.10
16956;BMP180;8594;52.052;8.354;2023-06-26T18:53:40;100866.00;;;24.40
16956;BMP180;8594;52.052;8.354;2023-06-26T18:56:07;100865.00;;;24.20
16956;BMP180;8594;52.052;8.354;2023-06-26T18:58:35;100874.00;;;24.70
16956;BMP180;8594;52.052;8.354;2023-06-26T19:01:05;100868.00;;;24.60
16956;BMP180;8594;52.052;8.354;2023-06-26T19:03:32;100878.00;;;24.50
16956;BMP180;8594;52.052;8.354;2023-06-26T19:05:59;100884.00;;;24.60
16956;BMP180;8594;52.052;8.354;2023-06-26T19:08:26;100885.00;;;24.50
16956;BMP180;8594;52.052;8.354;2023-06-26T19:10:53;100893.00;;;24.30
16956;BMP180;8594;52.052;8.354;2023-06-26T19:13:20;100898.00;;;24.60
16956;BMP180;8594;52.052;8.354;2023-06-26T19:15:46;100893.00;;;24.10
16956;BMP180;8594;52.052;8.354;2023-06-26T19:18:15;100886.00;;;24.10
16956;BMP180;8594;52.052;8.354;2023-06-26T19:20:42;100892.00;;;24.80
16956;BMP180;8594;52.052;8.354;2023-06-26T19:23:09;100896.00;;;24.60
16956;BMP180;8594;52.052;8.354;2023-06-26T19:25:35;100899.00;;;24.30
16956;BMP180;8594;52.052;8.354;2023-06-26T19:28:02;100906.00;;;24.40
16956;BMP180;8594;52.052;8.354;2023-06-26T19:30:29;100909.00;;;24.20
16956;BMP180;8594;52.052;8.354;2023-06-26T19:32:57;100905.00;;;24.20
16956;BMP180;8594;52.052;8.354;2023-06-26T19:35:25;100907.00;;;24.00
16956;BMP180;8594;52.052;8.354;2023-06-26T19:37:52;100913.00;;;24.20
16956;BMP180;8594;52.052;8.354;2023-06-26T19:40:19;100911.00;;;23.90
16956;BMP180;8594;52.052;8.354;2023-06-26T19:42:46;100913.00;;;24.20
16956;BMP180;8594;52.052;8.354;2023-06-26T19:45:13;100919.00;;;24.10
16956;BMP180;8594;52.052;8.354;2023-06-26T19:47:40;100916.00;;;23.30
16956;BMP180;8594;52.052;8.354;2023-06-26T19:50:07;100915.00;;;23.50
16956;BMP180;8594;52.052;8.354;2023-06-26T19:52:36;100926.00;;;23.90
16956;BMP180;8594;52.052;8.354;2023-06-26T19:55:04;100931.00;;;24.00
16956;BMP180;8594;52.052;8.354;2023-06-26T19:57:30;100929.00;;;23.70
16956;BMP180;8594;52.052;8.354;2023-06-26T19:59:57;100933.00;;;23.60
16956;BMP180;8594;52.052;8.354;2023-06-26T20:02:24;100932.00;;;23.50
16956;BMP180;8594;52.052;8.354;2023-06-26T20:04:51;100935.00;;;24.00
16956;BMP180;8594;52.052;8.354;2023-06-26T20:07:18;100937.00;;;23.80
16956;BMP180;8594;52.052;8.354;2023-06-26T20:09:46;100937.00;;;23.40
16956;BMP180;8594;52.052;8.354;2023-06-26T20:12:13;100935.00;;;23.40
16956;BMP180;8594;52.052;8.354;2023-06-26T20:14:40;100938.00;;;23.60
16956;BMP180;8594;52.052;8.354;2023-06-26T20:17:07;100944.00;;;24.00
16956;BMP180;8594;52.052;8.354;2023-06-26T20:19:33;100951.00;;;23.80
16956;BMP180;8594;52.052;8.354;2023-06-26T20:22:01;100949.00;;;23.50
16956;BMP180;8594;52.052;8.354;2023-06-26T20:24:27;100947.00;;;23.30
16956;BMP180;8594;52.052;8.354;2023-06-26T20:27:00;100953.00;;;23.40
16956;BMP180;8594;52.052;8.354;2023-06-26T20:29:27;100947.00;;;23.10
16956;BMP180;8594;52.052;8.354;2023-06-26T20:31:53;100948.00;;;23.30
16956;BMP180;8594;52.052;8.354;2023-06-26T20:34:20;100953.00;;;23.50
16956;BMP180;8594;52.052;8.354;2023-06-26T20:36:48;100952.00;;;23.40
16956;BMP180;8594;52.052;8.354;2023-06-26T20:39:15;100955.00;;;23.60